createdAt,value
2022-11-20T00:00:29.456Z,82.10
2022-11-20T00:01:29.399Z,82.20
2022-11-20T00:02:29.438Z,82.20
2022-11-20T00:03:29.395Z,82.31
2022-11-20T00:04:29.383Z,82.31
2022-11-20T00:05:29.356Z,82.31
2022-11-20T00:06:29.355Z,82.20
2022-11-20T00:07:29.384Z,82.20
2022-11-20T00:08:29.383Z,82.31
2022-11-20T00:09:29.355Z,82.73
2022-11-20T00:10:29.325Z,83.15
2022-11-20T00:11:29.316Z,83.47
2022-11-20T00:12:29.292Z,83.53
2022-11-20T00:13:29.284Z,83.64
2022-11-20T00:14:29.305Z,83.64
2022-11-20T00:15:29.278Z,83.53
2022-11-20T00:16:29.281Z,83.22
2022-11-20T00:17:29.243Z,82.90
2022-11-20T00:18:29.231Z,82.62
2022-11-20T00:19:29.214Z,82.52
2022-11-20T00:20:29.212Z,82.31
2022-11-20T00:21:29.250Z,82.20
2022-11-20T00:22:29.194Z,82.24
2022-11-20T00:23:29.174Z,82.35
2022-11-20T00:24:29.168Z,82.59
2022-11-20T00:25:29.152Z,82.81
2022-11-20T00:26:29.225Z,83.01
2022-11-20T00:27:29.151Z,83.33
2022-11-20T00:28:29.138Z,83.64
2022-11-20T00:29:29.110Z,83.96
2022-11-20T00:30:29.113Z,84.17
2022-11-20T00:31:29.102Z,84.27
2022-11-20T00:32:29.081Z,84.31
2022-11-20T00:33:29.110Z,84.31
2022-11-20T00:34:29.060Z,84.31
2022-11-20T00:35:29.042Z,84.42
2022-11-20T00:36:29.112Z,84.42
2022-11-20T00:37:29.060Z,84.63
2022-11-20T00:38:29.019Z,84.73
2022-11-20T00:39:29.041Z,84.84
2022-11-20T00:40:29.000Z,84.84
2022-11-20T00:41:29.019Z,85.05
2022-11-20T00:42:28.979Z,85.05
2022-11-20T00:43:28.959Z,85.15
2022-11-20T00:44:28.969Z,85.15
2022-11-20T00:45:28.947Z,85.15
2022-11-20T00:46:28.970Z,85.15
2022-11-20T00:47:28.929Z,85.15
2022-11-20T00:48:28.921Z,85.15
2022-11-20T00:49:28.909Z,85.25
2022-11-20T00:50:28.888Z,85.25
2022-11-20T00:51:28.922Z,85.25
2022-11-20T00:52:28.876Z,85.25
2022-11-20T00:53:28.857Z,85.25
2022-11-20T00:54:28.857Z,85.25
2022-11-20T00:55:28.839Z,85.25
2022-11-20T00:56:28.867Z,85.25
2022-11-20T00:57:28.846Z,85.36
2022-11-20T00:58:28.816Z,85.40
2022-11-20T00:59:28.795Z,85.40
2022-11-20T01:00:28.817Z,85.61
2022-11-20T01:01:28.823Z,85.72
2022-11-20T01:02:28.876Z,85.72
2022-11-20T01:03:28.779Z,85.72
2022-11-20T01:04:28.766Z,85.82
2022-11-20T01:05:28.734Z,85.93
2022-11-20T01:06:28.725Z,86.03
2022-11-20T01:07:28.758Z,86.10
2022-11-20T01:08:28.752Z,86.20
2022-11-20T01:09:28.694Z,86.30
2022-11-20T01:10:28.677Z,86.20
2022-11-20T01:11:28.741Z,86.20
2022-11-20T01:12:28.685Z,86.30
2022-11-20T01:13:28.683Z,86.30
2022-11-20T01:14:28.643Z,86.20
2022-11-20T01:15:28.634Z,86.10
2022-11-20T01:16:28.672Z,85.99
2022-11-20T01:17:28.619Z,85.89
2022-11-20T01:18:28.600Z,85.82
2022-11-20T01:19:28.600Z,85.72
2022-11-20T01:20:28.619Z,85.72
2022-11-20T01:21:28.572Z,85.72
2022-11-20T01:22:28.551Z,85.72
2022-11-20T01:23:28.595Z,85.72
2022-11-20T01:24:28.532Z,85.72
2022-11-20T01:25:28.531Z,85.72
2022-11-20T01:26:28.532Z,85.82
2022-11-20T01:27:28.520Z,85.82
2022-11-20T01:28:28.494Z,86.13
2022-11-20T01:29:28.530Z,86.24
2022-11-20T01:30:28.470Z,86.45
2022-11-20T01:31:28.461Z,86.55
2022-11-20T01:32:28.450Z,86.66
2022-11-20T01:33:28.446Z,86.77
2022-11-20T01:34:28.469Z,86.77
2022-11-20T01:35:28.419Z,86.87
2022-11-20T01:36:28.410Z,86.98
2022-11-20T01:37:28.462Z,86.98
2022-11-20T01:38:28.391Z,86.98
2022-11-20T01:39:28.378Z,86.98
2022-11-20T01:40:28.398Z,86.94
2022-11-20T01:41:28.366Z,86.94
2022-11-20T01:42:28.349Z,86.94
2022-11-20T01:43:28.368Z,86.94
2022-11-20T01:44:28.327Z,86.94
2022-11-20T01:45:28.323Z,87.04
2022-11-20T01:46:28.328Z,87.04
2022-11-20T01:47:28.308Z,86.94
2022-11-20T01:48:28.322Z,86.94
2022-11-20T01:49:28.277Z,86.83
2022-11-20T01:50:28.299Z,86.72
2022-11-20T01:51:28.260Z,86.72
2022-11-20T01:52:28.266Z,86.62
2022-11-20T01:53:28.243Z,86.62
2022-11-20T01:54:28.248Z,86.52
2022-11-20T01:55:28.214Z,86.52
2022-11-20T01:56:28.236Z,86.52
2022-11-20T01:57:28.206Z,86.52
2022-11-20T01:58:28.225Z,86.41
2022-11-20T01:59:28.177Z,86.41
2022-11-20T02:00:28.157Z,86.30
2022-11-20T02:01:28.209Z,86.20
2022-11-20T02:02:28.154Z,86.10
2022-11-20T02:03:28.158Z,85.99
2022-11-20T02:04:28.156Z,85.99
2022-11-20T02:05:28.116Z,85.89
2022-11-20T02:06:28.113Z,85.82
2022-11-20T02:07:28.138Z,86.03
2022-11-20T02:08:28.135Z,86.24
2022-11-20T02:09:28.082Z,86.35
2022-11-20T02:10:28.065Z,86.41
2022-11-20T02:11:28.073Z,86.62
2022-11-20T02:12:28.063Z,86.72
2022-11-20T02:13:28.023Z,86.94
2022-11-20T02:14:28.014Z,87.04
2022-11-20T02:15:30.439Z,87.04
2022-11-20T02:16:27.993Z,86.94
2022-11-20T02:17:28.003Z,86.83
2022-11-20T02:18:28.002Z,86.52
2022-11-20T02:19:28.034Z,86.30
2022-11-20T02:20:27.952Z,86.20
2022-11-20T02:21:27.942Z,86.20
2022-11-20T02:22:27.951Z,86.20
2022-11-20T02:23:27.930Z,86.30
2022-11-20T02:24:27.908Z,86.30
2022-11-20T02:25:27.933Z,86.35
2022-11-20T02:26:27.888Z,86.45
2022-11-20T02:27:27.891Z,86.45
2022-11-20T02:28:27.871Z,86.45
2022-11-20T02:29:27.862Z,86.45
2022-11-20T02:30:27.881Z,86.45
2022-11-20T02:31:27.847Z,86.35
2022-11-20T02:32:27.886Z,86.24
2022-11-20T02:33:27.820Z,86.13
2022-11-20T02:34:27.801Z,86.03
2022-11-20T02:35:27.829Z,85.93
2022-11-20T02:36:27.789Z,85.93
2022-11-20T02:37:27.790Z,85.86
2022-11-20T02:39:38.450Z,86.07
2022-11-20T02:40:38.467Z,86.18
2022-11-20T02:41:38.416Z,86.28
2022-11-20T02:42:38.405Z,86.38
2022-11-20T02:43:38.398Z,86.49
2022-11-20T02:44:38.407Z,86.60
2022-11-20T02:45:38.377Z,86.70
2022-11-20T02:46:38.393Z,86.85
2022-11-20T02:47:38.386Z,86.85
2022-11-20T02:48:38.357Z,86.85
2022-11-20T02:49:38.338Z,86.95
2022-11-20T02:50:38.356Z,86.95
2022-11-20T02:51:38.315Z,87.05
2022-11-20T02:52:38.304Z,87.16
2022-11-20T02:53:38.467Z,87.27
2022-11-20T02:54:38.286Z,87.37
2022-11-20T02:55:38.275Z,87.48
2022-11-20T02:56:38.257Z,87.58
2022-11-20T02:57:38.256Z,87.68
2022-11-20T02:58:38.235Z,87.79
2022-11-20T02:59:38.292Z,87.90
2022-11-20T03:00:38.223Z,88.00
2022-11-20T03:01:38.260Z,88.10
2022-11-20T03:02:38.361Z,88.21
2022-11-20T03:03:38.193Z,88.32
2022-11-20T03:04:38.174Z,88.49
2022-11-20T03:05:38.175Z,88.70
2022-11-20T03:06:38.152Z,89.01
2022-11-20T03:07:38.230Z,89.12
2022-11-20T03:08:38.202Z,89.12
2022-11-20T03:09:38.131Z,89.12
2022-11-20T03:10:38.112Z,89.12
2022-11-20T03:11:38.111Z,89.12
2022-11-20T03:12:38.131Z,89.12
2022-11-20T03:13:38.090Z,89.01
2022-11-20T03:14:38.072Z,89.01
2022-11-20T03:15:38.079Z,88.91
2022-11-20T03:16:38.064Z,88.70
2022-11-20T03:17:38.078Z,88.49
2022-11-20T03:18:38.041Z,88.28
2022-11-20T03:19:38.059Z,88.17
2022-11-20T03:20:38.020Z,87.96
2022-11-20T03:21:38.010Z,88.00
2022-11-20T03:22:38.020Z,87.90
2022-11-20T03:23:37.989Z,88.00
2022-11-20T03:24:37.982Z,88.00
2022-11-20T03:25:37.968Z,88.10
2022-11-20T03:26:37.951Z,88.10
2022-11-20T03:27:37.977Z,88.21
2022-11-20T03:28:37.929Z,88.32
2022-11-20T03:29:37.928Z,88.46
2022-11-20T03:30:37.908Z,88.57
2022-11-20T03:31:37.906Z,88.57
2022-11-20T03:32:37.935Z,88.67
2022-11-20T03:33:37.886Z,88.67
2022-11-20T03:34:37.868Z,88.89
2022-11-20T03:35:37.866Z,88.99
2022-11-20T03:36:37.879Z,89.30
2022-11-20T03:37:37.845Z,89.47
2022-11-20T03:38:37.832Z,89.69
2022-11-20T03:39:37.977Z,90.00
2022-11-20T03:40:37.807Z,90.06
2022-11-20T03:41:37.803Z,90.06
2022-11-20T03:42:37.786Z,90.06
2022-11-20T03:43:37.786Z,89.96
2022-11-20T03:44:37.796Z,89.96
2022-11-20T03:45:37.765Z,89.86
2022-11-20T03:46:37.750Z,89.75
2022-11-20T03:47:37.736Z,89.75
2022-11-20T03:48:37.724Z,89.86
2022-11-20T03:49:37.725Z,89.86
2022-11-20T03:50:37.755Z,89.75
2022-11-20T03:51:37.706Z,89.64
2022-11-20T03:52:37.684Z,89.43
2022-11-20T03:53:37.674Z,89.32
2022-11-20T03:54:37.692Z,89.16
2022-11-20T03:55:37.685Z,89.26
2022-11-20T03:56:37.752Z,89.47
2022-11-20T03:57:37.633Z,89.58
2022-11-20T03:58:37.623Z,89.69
2022-11-20T03:59:37.623Z,89.58
2022-11-20T04:00:37.604Z,89.47
2022-11-20T04:01:37.673Z,89.37
2022-11-20T04:02:37.613Z,89.30
2022-11-20T04:03:37.580Z,89.20
2022-11-20T04:04:37.601Z,89.09
2022-11-20T04:05:37.571Z,89.09
2022-11-20T04:06:37.542Z,89.09
2022-11-20T04:07:37.593Z,89.09
2022-11-20T04:08:37.522Z,89.20
2022-11-20T04:09:37.512Z,89.20
2022-11-20T04:10:37.561Z,89.30
2022-11-20T04:11:37.503Z,89.30
2022-11-20T04:12:37.485Z,89.30
2022-11-20T04:13:37.485Z,89.30
2022-11-20T04:14:37.500Z,89.30
2022-11-20T04:15:38.609Z,89.41
2022-11-20T04:16:37.530Z,89.51
2022-11-20T04:17:37.453Z,89.83
2022-11-20T04:18:37.423Z,90.04
2022-11-20T04:19:37.437Z,90.21
2022-11-20T04:20:37.413Z,90.31
2022-11-20T04:21:37.421Z,90.42
2022-11-20T04:22:37.379Z,90.53
2022-11-20T04:23:37.376Z,90.53
2022-11-20T04:24:37.408Z,90.42
2022-11-20T04:25:37.433Z,90.31
2022-11-20T04:26:37.338Z,90.11
2022-11-20T04:27:37.329Z,90.00
2022-11-20T04:28:37.338Z,89.79
2022-11-20T04:29:37.307Z,89.72
2022-11-20T04:30:37.296Z,89.62
2022-11-20T04:31:37.317Z,89.62
2022-11-20T04:32:37.286Z,89.51
2022-11-20T04:33:37.297Z,89.72
2022-11-20T04:34:37.280Z,89.89
2022-11-20T04:35:37.246Z,90.21
2022-11-20T04:36:37.237Z,90.63
2022-11-20T04:37:37.256Z,90.84
2022-11-20T04:38:37.216Z,90.73
2022-11-20T04:39:37.218Z,90.63
2022-11-20T04:40:37.196Z,90.53
2022-11-20T04:41:37.233Z,90.42
2022-11-20T04:42:37.166Z,90.42
2022-11-20T04:43:37.166Z,90.42
2022-11-20T04:44:37.205Z,90.53
2022-11-20T04:45:37.144Z,90.73
2022-11-20T04:46:37.136Z,90.84
2022-11-20T04:47:37.257Z,91.01
2022-11-20T04:48:37.104Z,91.11
2022-11-20T04:49:37.211Z,91.11
2022-11-20T04:50:37.092Z,91.11
2022-11-20T04:51:37.104Z,91.22
2022-11-20T04:52:37.066Z,91.22
2022-11-20T04:53:37.094Z,91.33
2022-11-20T04:54:37.053Z,91.39
2022-11-20T04:55:37.090Z,91.60
2022-11-20T04:56:37.047Z,91.60
2022-11-20T04:57:37.022Z,91.60
2022-11-20T04:58:37.002Z,91.60
2022-11-20T04:59:37.003Z,91.97
2022-11-20T05:00:36.981Z,93.40
2022-11-20T05:01:37.049Z,94.74
2022-11-20T05:02:36.963Z,95.60
2022-11-20T05:03:42.023Z,95.81
2022-11-20T05:04:37.944Z,95.92
2022-11-20T05:05:36.931Z,95.92
2022-11-20T05:06:36.921Z,95.64
2022-11-20T05:07:36.997Z,95.64
2022-11-20T05:08:36.903Z,95.37
2022-11-20T05:09:36.899Z,95.21
2022-11-20T05:10:36.881Z,95.10
2022-11-20T05:11:36.879Z,94.79
2022-11-20T05:12:36.909Z,94.62
2022-11-20T05:13:36.849Z,94.31
2022-11-20T05:14:36.840Z,94.14
2022-11-20T05:15:36.840Z,93.93
2022-11-20T05:16:36.820Z,93.62
2022-11-20T05:17:36.819Z,93.40
2022-11-20T05:18:36.869Z,93.19
2022-11-20T05:19:36.855Z,93.09
2022-11-20T05:20:36.779Z,92.99
2022-11-20T05:21:36.790Z,92.88
2022-11-20T05:22:36.760Z,92.77
2022-11-20T05:23:36.779Z,92.67
2022-11-20T05:24:36.737Z,92.67
2022-11-20T05:25:36.729Z,92.35
2022-11-20T05:26:36.718Z,92.25
2022-11-20T05:27:36.724Z,92.14
2022-11-20T05:28:36.728Z,91.94
2022-11-20T05:29:36.726Z,91.83
2022-11-20T05:30:36.677Z,91.72
2022-11-20T05:31:36.666Z,91.62
2022-11-20T05:32:36.655Z,91.52
2022-11-20T05:33:36.650Z,91.52
2022-11-20T05:34:36.636Z,91.41
2022-11-20T05:35:36.936Z,91.41
2022-11-20T05:36:36.615Z,91.52
2022-11-20T05:37:36.637Z,92.69
2022-11-20T05:38:36.596Z,93.11
2022-11-20T05:39:36.595Z,93.21
2022-11-20T05:40:36.624Z,93.21
2022-11-20T05:41:36.617Z,93.11
2022-11-20T05:42:36.558Z,92.90
2022-11-20T05:43:36.544Z,92.90
2022-11-20T05:44:36.563Z,92.80
2022-11-20T05:45:36.555Z,92.58
2022-11-20T05:46:36.523Z,92.38
2022-11-20T05:47:36.494Z,92.16
2022-11-20T05:48:36.494Z,92.06
2022-11-20T05:49:36.482Z,91.96
2022-11-20T05:50:36.477Z,91.85
2022-11-20T05:51:36.494Z,91.85
2022-11-20T05:52:36.453Z,91.75
2022-11-20T05:53:36.444Z,91.75
2022-11-20T05:54:36.434Z,91.64
2022-11-20T05:55:36.412Z,91.64
2022-11-20T05:56:36.461Z,91.53
2022-11-20T05:57:36.392Z,91.43
2022-11-20T05:58:36.453Z,91.33
2022-11-20T05:59:36.371Z,91.22
2022-11-20T06:00:36.373Z,91.12
2022-11-20T06:01:36.389Z,90.91
2022-11-20T06:02:36.407Z,90.80
2022-11-20T06:03:36.382Z,90.70
2022-11-20T06:04:36.333Z,90.70
2022-11-20T06:05:36.322Z,90.59
2022-11-20T06:06:36.311Z,90.49
2022-11-20T06:07:36.359Z,90.49
2022-11-20T06:08:36.290Z,90.49
2022-11-20T06:09:36.301Z,90.49
2022-11-20T06:10:36.280Z,90.49
2022-11-20T06:11:36.251Z,90.49
2022-11-20T06:12:36.250Z,90.70
2022-11-20T06:13:41.646Z,90.80
2022-11-20T06:14:37.229Z,90.91
2022-11-20T06:15:36.231Z,91.12
2022-11-20T06:16:36.203Z,91.33
2022-11-20T06:17:36.218Z,91.43
2022-11-20T06:18:36.218Z,91.43
2022-11-20T06:19:36.170Z,91.33
2022-11-20T06:20:41.821Z,91.12
2022-11-20T06:21:37.145Z,91.12
2022-11-20T06:22:36.138Z,91.22
2022-11-20T06:23:36.168Z,91.33
2022-11-20T06:24:36.157Z,91.33
2022-11-20T06:25:36.098Z,91.33
2022-11-20T06:26:36.095Z,91.22
2022-11-20T06:27:36.096Z,91.22
2022-11-20T06:28:36.079Z,91.22
2022-11-20T06:29:36.130Z,91.12
2022-11-20T06:30:36.095Z,91.12
2022-11-20T06:31:36.064Z,91.12
2022-11-20T06:32:36.039Z,91.12
2022-11-20T06:33:36.026Z,91.12
2022-11-20T06:34:36.056Z,91.22
2022-11-20T06:35:35.996Z,91.22
2022-11-20T06:36:36.025Z,91.33
2022-11-20T06:37:35.975Z,91.43
2022-11-20T06:38:35.973Z,91.43
2022-11-20T06:39:35.958Z,91.33
2022-11-20T06:40:35.963Z,91.12
2022-11-20T06:41:35.994Z,91.12
2022-11-20T06:42:35.934Z,91.01
2022-11-20T06:43:35.915Z,91.01
2022-11-20T06:44:35.913Z,90.91
2022-11-20T06:45:35.933Z,90.84
2022-11-20T06:46:35.893Z,90.53
2022-11-20T06:47:35.880Z,90.42
2022-11-20T06:48:35.871Z,90.25
2022-11-20T06:49:35.854Z,90.47
2022-11-20T06:50:35.851Z,90.78
2022-11-20T06:51:36.173Z,90.89
2022-11-20T06:52:39.566Z,90.99
2022-11-20T06:53:36.828Z,91.20
2022-11-20T06:54:36.143Z,91.30
2022-11-20T06:55:35.791Z,91.37
2022-11-20T06:56:35.819Z,91.47
2022-11-20T06:57:35.773Z,91.58
2022-11-20T06:58:35.762Z,91.68
2022-11-20T06:59:35.761Z,91.79
2022-11-20T07:00:35.821Z,92.10
2022-11-20T07:01:35.731Z,92.38
2022-11-20T07:02:35.901Z,92.38
2022-11-20T07:03:35.742Z,92.48
2022-11-20T07:04:35.750Z,92.58
2022-11-20T07:05:35.691Z,92.69
2022-11-20T07:06:35.689Z,92.63
2022-11-20T07:07:35.690Z,92.52
2022-11-20T07:08:35.660Z,92.32
2022-11-20T07:09:35.780Z,92.14
2022-11-20T07:10:35.648Z,91.94
2022-11-20T07:11:35.637Z,91.87
2022-11-20T07:12:35.618Z,91.77
2022-11-20T07:13:35.609Z,91.66
2022-11-20T07:14:35.630Z,91.77
2022-11-20T07:15:35.597Z,91.87
2022-11-20T07:16:35.582Z,91.97
2022-11-20T07:17:35.568Z,92.08
2022-11-20T07:18:35.558Z,92.19
2022-11-20T07:19:35.552Z,92.29
2022-11-20T07:20:35.568Z,92.40
2022-11-20T07:21:35.526Z,92.50
2022-11-20T07:22:35.517Z,92.50
2022-11-20T07:23:35.506Z,92.61
2022-11-20T07:24:35.497Z,92.71
2022-11-20T07:25:38.579Z,92.82
2022-11-20T07:26:35.476Z,92.82
2022-11-20T07:27:35.456Z,93.09
2022-11-20T07:28:35.457Z,93.19
2022-11-20T07:29:35.446Z,93.19
2022-11-20T07:30:35.497Z,93.30
2022-11-20T07:31:35.526Z,93.30
2022-11-20T07:32:35.511Z,93.40
2022-11-20T07:33:35.404Z,93.36
2022-11-20T07:34:35.397Z,93.47
2022-11-20T07:35:35.384Z,93.57
2022-11-20T07:36:35.584Z,93.57
2022-11-20T07:37:35.364Z,93.57
2022-11-20T07:38:35.355Z,93.68
2022-11-20T07:39:35.377Z,93.78
2022-11-20T07:40:35.335Z,93.78
2022-11-20T07:41:35.324Z,93.88
2022-11-20T07:42:35.341Z,93.88
2022-11-20T07:43:40.840Z,93.84
2022-11-20T07:44:36.344Z,93.95
2022-11-20T07:45:35.274Z,94.16
2022-11-20T07:46:35.274Z,93.95
2022-11-20T07:47:35.264Z,93.78
2022-11-20T07:48:35.253Z,93.78
2022-11-20T07:49:35.245Z,93.68
2022-11-20T07:50:35.263Z,93.68
2022-11-20T07:51:35.222Z,93.57
2022-11-20T07:52:35.211Z,93.57
2022-11-20T07:53:35.197Z,93.47
2022-11-20T07:54:35.193Z,93.51
2022-11-20T07:55:35.222Z,93.40
2022-11-20T07:56:35.172Z,93.40
2022-11-20T07:57:35.159Z,93.40
2022-11-20T07:58:35.200Z,93.30
2022-11-20T07:59:35.140Z,93.30
2022-11-20T08:00:35.175Z,93.26
2022-11-20T08:01:35.123Z,93.26
2022-11-20T08:02:35.729Z,93.26
2022-11-20T08:03:35.090Z,93.26
2022-11-20T08:04:35.211Z,93.26
2022-11-20T08:05:35.093Z,93.26
2022-11-20T08:06:35.070Z,93.26
2022-11-20T08:07:36.814Z,93.36
2022-11-20T08:08:38.921Z,93.36
2022-11-20T08:09:36.068Z,93.36
2022-11-20T08:10:35.034Z,93.32
2022-11-20T08:11:35.019Z,93.43
2022-11-20T08:12:35.000Z,93.32
2022-11-20T08:13:34.991Z,93.32
2022-11-20T08:14:35.027Z,93.32
2022-11-20T08:15:34.972Z,93.21
2022-11-20T08:16:34.958Z,93.21
2022-11-20T08:17:34.947Z,93.21
2022-11-20T08:18:34.968Z,93.21
2022-11-20T08:19:34.938Z,93.21
2022-11-20T08:20:34.918Z,93.21
2022-11-20T08:21:38.230Z,93.11
2022-11-20T08:22:34.947Z,93.11
2022-11-20T08:23:34.908Z,93.11
2022-11-20T08:24:34.876Z,93.11
2022-11-20T08:25:34.870Z,93.07
2022-11-20T08:26:34.869Z,93.07
2022-11-20T08:27:34.895Z,93.07
2022-11-20T08:28:34.847Z,93.07
2022-11-20T08:29:34.907Z,93.07
2022-11-20T08:30:34.874Z,93.07
2022-11-20T08:31:34.859Z,93.02
2022-11-20T08:32:34.882Z,93.02
2022-11-20T08:33:34.844Z,93.02
2022-11-20T08:34:34.775Z,93.02
2022-11-20T08:35:34.765Z,92.92
2022-11-20T08:36:34.755Z,93.02
2022-11-20T08:37:34.772Z,92.92
2022-11-20T08:38:43.583Z,92.88
2022-11-20T08:39:34.726Z,92.98
2022-11-20T08:40:34.715Z,93.08
2022-11-20T08:41:34.695Z,93.08
2022-11-20T08:42:34.694Z,93.04
2022-11-20T08:43:34.753Z,93.04
2022-11-20T08:44:34.698Z,93.15
2022-11-20T08:45:35.556Z,92.94
2022-11-20T08:46:34.645Z,92.73
2022-11-20T08:47:34.634Z,92.63
2022-11-20T08:48:34.625Z,92.48
2022-11-20T08:49:34.666Z,92.48
2022-11-20T08:50:34.604Z,92.38
2022-11-20T08:51:34.622Z,92.27
2022-11-20T08:52:39.716Z,92.16
2022-11-20T08:53:35.603Z,92.06
2022-11-20T08:54:34.568Z,91.96
2022-11-20T08:55:34.544Z,91.96
2022-11-20T08:56:34.541Z,91.85
2022-11-20T08:57:34.922Z,91.85
2022-11-20T08:58:54.923Z,91.81
2022-11-20T09:00:05.673Z,91.81
2022-11-20T09:00:35.644Z,92.02
2022-11-20T09:01:34.482Z,92.02
2022-11-20T09:02:34.472Z,91.81
2022-11-20T09:03:34.481Z,91.60
2022-11-20T09:04:34.463Z,91.39
2022-11-20T09:05:34.471Z,91.18
2022-11-20T09:06:34.452Z,90.87
2022-11-20T09:07:34.549Z,90.66
2022-11-20T09:08:34.414Z,90.56
2022-11-20T09:09:34.402Z,90.45
2022-11-20T09:10:34.390Z,90.34
2022-11-20T09:11:34.381Z,90.24
2022-11-20T09:12:34.370Z,90.14
2022-11-20T09:13:34.530Z,90.14
2022-11-20T09:14:34.354Z,90.24
2022-11-20T09:15:34.342Z,90.20
2022-11-20T09:16:34.331Z,90.20
2022-11-20T09:17:34.351Z,90.20
2022-11-20T09:18:34.348Z,90.31
2022-11-20T09:19:40.731Z,90.41
2022-11-20T09:20:35.303Z,90.52
2022-11-20T09:21:34.281Z,90.62
2022-11-20T09:22:34.270Z,90.62
2022-11-20T09:23:34.257Z,90.62
2022-11-20T09:24:34.249Z,90.58
2022-11-20T09:25:34.269Z,90.58
2022-11-20T09:26:34.229Z,90.58
2022-11-20T09:27:34.261Z,90.68
2022-11-20T09:28:34.227Z,90.68
2022-11-20T09:29:34.220Z,90.68
2022-11-20T09:30:34.186Z,90.68
2022-11-20T09:31:34.175Z,90.64
2022-11-20T09:32:34.168Z,90.75
2022-11-20T09:33:34.155Z,90.75
2022-11-20T09:34:34.176Z,90.75
2022-11-20T09:35:34.137Z,90.60
2022-11-20T09:36:34.143Z,90.50
2022-11-20T09:37:35.810Z,90.39
2022-11-20T09:38:34.373Z,90.39
2022-11-20T09:39:34.095Z,90.28
2022-11-20T09:40:34.084Z,90.28
2022-11-20T09:41:34.075Z,90.14
2022-11-20T09:42:34.066Z,90.03
2022-11-20T09:43:35.735Z,89.93
2022-11-20T09:44:34.122Z,89.93
2022-11-20T09:45:34.035Z,89.72
2022-11-20T09:46:34.025Z,89.62
2022-11-20T09:47:34.004Z,89.58
2022-11-20T09:48:34.052Z,89.58
2022-11-20T09:49:34.628Z,89.47
2022-11-20T09:50:34.004Z,89.47
2022-11-20T09:51:33.973Z,89.22
2022-11-20T09:52:33.954Z,89.12
2022-11-20T09:53:33.945Z,89.01
2022-11-20T09:54:33.964Z,88.91
2022-11-20T09:55:33.941Z,88.91
2022-11-20T09:56:33.916Z,88.91
2022-11-20T09:57:33.921Z,88.81
2022-11-20T09:58:33.893Z,88.66
2022-11-20T09:59:33.883Z,88.66
2022-11-20T10:00:33.967Z,88.56
2022-11-20T10:01:33.861Z,88.56
2022-11-20T10:02:33.842Z,88.45
2022-11-20T10:03:33.832Z,88.24
2022-11-20T10:04:36.885Z,88.24
2022-11-20T10:05:34.885Z,88.14
2022-11-20T10:06:33.846Z,88.24
2022-11-20T10:07:33.941Z,88.10
2022-11-20T10:08:33.802Z,87.89
2022-11-20T10:09:33.789Z,87.89
2022-11-20T10:10:33.774Z,87.89
2022-11-20T10:11:33.750Z,87.79
2022-11-20T10:12:33.761Z,87.58
2022-11-20T10:13:33.729Z,87.58
2022-11-20T10:14:33.740Z,87.48
2022-11-20T10:15:33.704Z,87.48
2022-11-20T10:16:39.509Z,87.43
2022-11-20T10:17:34.679Z,87.33
2022-11-20T10:18:33.672Z,87.33
2022-11-20T10:19:33.902Z,87.12
2022-11-20T10:20:33.650Z,86.71
2022-11-20T10:21:33.646Z,86.50
2022-11-20T10:22:33.628Z,86.50
2022-11-20T10:23:33.619Z,86.50
2022-11-20T10:24:33.606Z,86.50
2022-11-20T10:25:33.629Z,86.50
2022-11-20T10:26:33.588Z,86.46
2022-11-20T10:27:33.600Z,86.35
2022-11-20T10:28:33.569Z,86.25
2022-11-20T10:29:33.617Z,86.04
2022-11-20T10:30:33.558Z,86.15
2022-11-20T10:31:33.540Z,86.21
2022-11-20T10:32:33.518Z,86.00
2022-11-20T10:33:50.109Z,85.90
2022-11-20T10:34:34.498Z,86.11
2022-11-20T10:35:33.496Z,85.65
2022-11-20T10:36:33.476Z,85.44
2022-11-20T10:37:33.487Z,85.24
2022-11-20T10:38:33.457Z,85.03
2022-11-20T10:39:33.508Z,84.82
2022-11-20T10:40:33.438Z,84.72
2022-11-20T10:41:35.845Z,84.61
2022-11-20T10:42:33.415Z,84.37
2022-11-20T10:43:33.420Z,84.16
2022-11-20T10:44:33.478Z,83.95
2022-11-20T10:45:33.390Z,83.74
2022-11-20T10:46:33.378Z,83.64
2022-11-20T10:47:33.407Z,83.64
2022-11-20T10:48:33.356Z,83.64
2022-11-20T10:49:33.347Z,83.64
2022-11-20T10:50:33.356Z,83.53
2022-11-20T10:51:33.325Z,83.33
2022-11-20T10:52:33.305Z,83.22
2022-11-20T10:53:33.304Z,83.22
2022-11-20T10:54:33.290Z,83.12
2022-11-20T10:55:33.305Z,83.12
2022-11-20T10:56:33.264Z,83.12
2022-11-20T10:57:33.265Z,83.01
2022-11-20T10:58:33.294Z,83.12
2022-11-20T10:59:33.265Z,82.98
2022-11-20T11:00:33.237Z,82.67
2022-11-20T11:01:33.299Z,82.77
2022-11-20T11:02:33.205Z,82.87
2022-11-20T11:03:33.205Z,82.98
2022-11-20T11:04:33.187Z,83.08
2022-11-20T11:05:33.184Z,83.08
2022-11-20T11:06:33.228Z,83.08
2022-11-20T11:07:33.258Z,82.98
2022-11-20T11:08:33.143Z,82.56
2022-11-20T11:09:33.133Z,82.56
2022-11-20T11:10:33.123Z,82.56
2022-11-20T11:11:33.123Z,82.56
2022-11-20T11:12:33.143Z,82.46
2022-11-20T11:13:33.108Z,82.46
2022-11-20T11:14:33.082Z,82.56
2022-11-20T11:15:33.072Z,82.67
2022-11-20T11:16:33.095Z,82.67
2022-11-20T11:17:33.056Z,82.67
2022-11-20T11:18:33.052Z,82.67
2022-11-20T11:19:33.041Z,82.67
2022-11-20T11:20:33.011Z,82.77
2022-11-20T11:21:33.014Z,82.77
2022-11-20T11:22:33.036Z,82.56
2022-11-20T11:23:32.992Z,82.46
2022-11-20T11:24:48.275Z,82.35
2022-11-20T11:25:33.966Z,82.46
2022-11-20T11:26:32.991Z,82.46
2022-11-20T11:27:33.013Z,82.53
2022-11-20T11:28:32.930Z,82.63
2022-11-20T11:29:32.933Z,82.63
2022-11-20T11:30:32.923Z,82.63
2022-11-20T11:31:32.910Z,82.63
2022-11-20T11:32:32.971Z,82.63
2022-11-20T11:33:32.891Z,82.53
2022-11-20T11:34:32.881Z,82.53
2022-11-20T11:35:32.871Z,82.42
2022-11-20T11:36:32.859Z,82.42
2022-11-20T11:37:32.840Z,82.53
2022-11-20T11:38:32.871Z,82.53
2022-11-20T11:39:32.828Z,82.53
2022-11-20T11:40:32.808Z,82.53
2022-11-20T11:41:32.838Z,82.73
2022-11-20T11:42:32.819Z,82.73
2022-11-20T11:43:36.734Z,82.73
2022-11-20T11:44:34.006Z,82.59
2022-11-20T11:45:32.759Z,82.39
2022-11-20T11:46:32.764Z,82.39
2022-11-20T11:47:32.738Z,82.28
2022-11-20T11:48:32.728Z,82.07
2022-11-20T11:49:32.721Z,81.97
2022-11-20T11:50:32.733Z,81.97
2022-11-20T11:51:32.689Z,81.97
2022-11-20T11:52:32.689Z,82.07
2022-11-20T11:53:32.679Z,82.07
2022-11-20T11:54:32.669Z,82.07
2022-11-20T11:55:32.686Z,82.07
2022-11-20T11:56:32.646Z,82.18
2022-11-20T11:57:32.638Z,82.14
2022-11-20T11:58:32.620Z,82.14
2022-11-20T11:59:32.618Z,81.93
2022-11-20T12:00:32.676Z,81.82
2022-11-20T12:01:33.046Z,81.62
2022-11-20T12:02:32.633Z,81.41
2022-11-20T12:03:32.595Z,81.30
2022-11-20T12:04:32.556Z,81.30
2022-11-20T12:05:32.548Z,81.20
2022-11-20T12:06:32.580Z,81.20
2022-11-20T12:07:46.059Z,81.41
2022-11-20T12:08:33.569Z,81.41
2022-11-20T12:09:32.506Z,81.30
2022-11-20T12:10:32.545Z,81.27
2022-11-20T12:11:32.516Z,81.16
2022-11-20T12:12:32.475Z,81.06
2022-11-20T12:13:32.473Z,80.96
2022-11-20T12:14:32.457Z,80.96
2022-11-20T12:15:32.480Z,80.96
2022-11-20T12:16:32.455Z,81.06
2022-11-20T12:17:32.431Z,81.16
2022-11-20T12:18:32.414Z,81.27
2022-11-20T12:19:32.445Z,81.27
2022-11-20T12:20:32.386Z,81.27
2022-11-20T12:21:32.425Z,81.16
2022-11-20T12:22:32.405Z,81.27
2022-11-20T12:23:32.355Z,81.16
2022-11-20T12:24:32.366Z,80.96
2022-11-20T12:25:32.344Z,80.85
2022-11-20T12:26:32.346Z,80.85
2022-11-20T12:27:32.322Z,80.96
2022-11-20T12:28:32.354Z,81.06
2022-11-20T12:29:32.293Z,81.06
2022-11-20T12:30:32.273Z,80.96
2022-11-20T12:31:32.271Z,80.85
2022-11-20T12:32:32.252Z,80.82
2022-11-20T12:33:32.341Z,80.82
2022-11-20T12:34:32.235Z,80.71
2022-11-20T12:35:32.232Z,80.61
2022-11-20T12:36:32.212Z,80.51
2022-11-20T12:37:32.223Z,80.51
2022-11-20T12:38:32.195Z,80.40
2022-11-20T12:39:32.191Z,80.40
2022-11-20T12:40:32.174Z,80.40
2022-11-20T12:41:32.162Z,80.40
2022-11-20T12:42:32.202Z,80.40
2022-11-20T12:43:32.155Z,80.19
2022-11-20T12:44:32.144Z,80.19
2022-11-20T12:45:32.132Z,80.09
2022-11-20T12:46:32.120Z,80.09
2022-11-20T12:47:32.153Z,80.09
2022-11-20T12:48:32.091Z,80.19
2022-11-20T12:49:32.123Z,80.19
2022-11-20T12:50:35.064Z,80.09
2022-11-20T12:51:32.072Z,80.19
2022-11-20T12:52:32.052Z,80.23
2022-11-20T12:53:32.042Z,80.13